Time;durP1;ratioP1;P1;durP2;ratioP2;P2;SDS_P1;SDS_P2;PMS_P1;PMS_P2;Temp;Humidity;BMP_temperature;BMP_pressure;BME280_temperature;BME280_humidity;BME280_pressure;Samples;Min_cycle;Max_cycle;Signal;HPM_P1;HPM_P2
2022/06/25 00:01:58;;;;;;;3.70;1.70;;;;;;;13.28;76.25;95909.81;10366446;28;96889;-68
2022/06/25 00:07:02;;;;;;;3.43;0.87;;;;;;;13.25;75.46;95908.31;10370747;28;97588;-68
2022/06/25 00:17:28;;;;;;;1.42;0.85;;;;;;;13.38;75.74;95905.97;10359007;28;97324;-68
2022/06/25 00:22:31;;;;;;;1.77;0.82;;;;;;;13.16;76.43;95915.41;10364586;28;99321;-68
2022/06/25 00:27:34;;;;;;;3.10;1.10;;;;;;;12.90;77.13;95907.81;10363782;28;98357;-68
2022/06/25 00:32:39;;;;;;;4.97;1.40;;;;;;;12.87;77.91;95913.38;10358973;28;97381;-68
2022/06/25 00:37:42;;;;;;;4.33;0.97;;;;;;;12.81;77.44;95911.44;10372041;28;97522;-67
2022/06/25 00:42:47;;;;;;;1.20;0.75;;;;;;;12.94;78.08;95916.19;10366175;28;99042;-68
2022/06/25 00:47:51;;;;;;;1.40;0.87;;;;;;;12.99;77.55;95914.66;10357271;28;97111;-68
2022/06/25 00:52:57;;;;;;;6.33;1.53;;;;;;;13.19;77.90;95911.66;10363471;28;97188;-68
2022/06/25 00:58:01;;;;;;;1.85;0.70;;;;;;;13.29;77.47;95914.03;10356059;28;98426;-68
2022/06/25 01:03:06;;;;;;;3.20;0.80;;;;;;;13.46;76.87;95891.97;10357696;28;98576;-68
2022/06/25 01:08:09;;;;;;;4.88;1.15;;;;;;;13.59;77.07;95894.84;10360731;28;98175;-68
2022/06/25 01:13:12;;;;;;;2.58;0.70;;;;;;;13.53;77.42;95890.28;10345120;28;98676;-69
2022/06/25 01:18:16;;;;;;;1.58;0.90;;;;;;;13.61;76.77;95898.09;10357367;28;97244;-68
2022/06/25 01:23:20;;;;;;;2.65;0.85;;;;;;;13.58;76.76;95893.19;10365112;28;97780;-68
2022/06/25 01:28:23;;;;;;;2.63;0.90;;;;;;;13.60;76.85;95896.47;10354131;28;96852;-68
2022/06/25 01:33:26;;;;;;;2.35;0.85;;;;;;;13.69;76.84;95905.09;10357355;28;98391;-68
2022/06/25 01:38:30;;;;;;;3.90;0.90;;;;;;;13.75;77.04;95900.97;10359136;28;98350;-68
2022/06/25 01:43:33;;;;;;;6.50;1.00;;;;;;;13.77;77.24;95891.91;10350040;28;97712;-68
2022/06/25 01:48:36;;;;;;;5.65;0.90;;;;;;;13.81;76.54;95892.34;10348336;28;97081;-68
2022/06/25 01:53:40;;;;;;;4.90;1.20;;;;;;;13.87;76.62;95894.28;10360652;28;97142;-69
2022/06/25 01:58:43;;;;;;;2.70;0.90;;;;;;;13.91;77.15;95892.94;10356223;28;98065;-68
2022/06/25 02:03:46;;;;;;;3.58;0.95;;;;;;;13.94;77.71;95894.41;10356159;28;99508;-68
2022/06/25 02:08:50;;;;;;;3.15;1.13;;;;;;;13.80;77.59;95888.13;10370536;28;96938;-68
2022/06/25 02:13:53;;;;;;;2.60;1.07;;;;;;;13.69;77.55;95893.78;10372264;28;97321;-68
2022/06/25 02:18:56;;;;;;;2.47;1.10;;;;;;;13.69;77.40;95889.34;10370282;28;97076;-68
2022/06/25 02:24:00;;;;;;;3.80;1.30;;;;;;;13.59;78.43;95888.78;10357727;28;97730;-68
2022/06/25 02:29:03;;;;;;;4.83;1.10;;;;;;;13.37;78.10;95895.63;10368518;28;97069;-70
2022/06/25 02:34:06;;;;;;;5.45;1.25;;;;;;;13.26;79.16;95893.41;10361198;28;96902;-68
2022/06/25 02:39:10;;;;;;;5.72;1.30;;;;;;;13.13;79.83;95899.22;10357004;28;97896;-70
2022/06/25 02:44:13;;;;;;;6.57;1.40;;;;;;;13.11;79.26;95895.94;10367425;28;98475;-68
2022/06/25 02:49:16;;;;;;;5.78;1.33;;;;;;;13.05;79.43;95902.69;10362443;28;98627;-68
2022/06/25 02:54:20;;;;;;;8.13;1.48;;;;;;;12.94;79.72;95897.81;10353669;28;97007;-68
2022/06/25 02:59:23;;;;;;;8.77;1.50;;;;;;;12.86;80.31;95898.66;10373504;28;96867;-67
2022/06/25 03:04:26;;;;;;;7.47;1.65;;;;;;;12.81;80.88;95891.28;10354675;28;96768;-68
2022/06/25 03:09:30;;;;;;;4.72;1.42;;;;;;;12.71;80.99;95890.69;10365874;28;97234;-68
2022/06/25 03:14:33;;;;;;;8.60;1.50;;;;;;;12.64;81.03;95895.78;10356101;28;97154;-68
2022/06/25 03:19:36;;;;;;;2.58;1.30;;;;;;;12.55;81.32;95890.75;10353336;28;101055;-69
2022/06/25 03:24:40;;;;;;;9.57;1.90;;;;;;;12.53;80.98;95893.53;10363859;28;97002;-68
2022/06/25 03:29:43;;;;;;;10.10;1.77;;;;;;;12.45;81.63;95891.72;10359898;28;97471;-68
2022/06/25 03:34:46;;;;;;;2.58;1.27;;;;;;;12.48;81.17;95890.59;10359713;28;97620;-68
2022/06/25 03:39:50;;;;;;;1.92;1.10;;;;;;;12.45;81.29;95901.41;10363344;28;96976;-67
2022/06/25 03:44:53;;;;;;;6.70;1.30;;;;;;;12.38;81.98;95901.25;10363269;28;98212;-68
2022/06/25 03:49:56;;;;;;;5.70;1.20;;;;;;;12.33;81.75;95907.97;10361835;28;97167;-68
2022/06/25 03:55:00;;;;;;;5.13;1.52;;;;;;;12.39;81.94;95902.91;10370077;28;96909;-68
2022/06/25 04:00:04;;;;;;;7.57;1.50;;;;;;;12.42;81.94;95907.81;10357899;28;96975;-67
2022/06/25 04:05:07;;;;;;;5.85;1.42;;;;;;;12.43;81.92;95914.66;10353055;28;96968;-69
2022/06/25 04:10:11;;;;;;;7.50;1.42;;;;;;;12.37;81.53;95910.09;10357943;28;97891;-68
2022/06/25 04:15:15;;;;;;;6.77;1.50;;;;;;;12.33;82.09;95898.31;10361589;28;98644;-68
2022/06/25 04:20:17;;;;;;;3.15;1.60;;;;;;;12.37;82.01;95894.41;10365564;28;97330;-67
2022/06/25 04:25:23;;;;;;;4.20;1.40;;;;;;;12.43;81.79;95898.94;10359116;28;98356;-68
2022/06/25 04:30:26;;;;;;;3.47;1.17;;;;;;;12.47;81.69;95902.88;10352454;28;97335;-68
2022/06/25 04:35:29;;;;;;;3.67;1.30;;;;;;;12.66;81.40;95903.47;10354116;28;97277;-68
2022/06/25 04:40:33;;;;;;;4.88;1.35;;;;;;;12.81;81.55;95899.16;10356118;28;97590;-69
2022/06/25 04:45:36;;;;;;;3.07;1.30;;;;;;;12.79;81.79;95900.31;10357572;28;99111;-69
2022/06/25 04:50:38;;;;;;;2.90;1.10;;;;;;;12.99;80.44;95890.25;10356455;28;96987;-68
2022/06/25 04:55:43;;;;;;;4.47;1.20;;;;;;;13.28;79.94;95891.44;10360151;28;96915;-68
2022/06/25 05:00:46;;;;;;;5.38;1.02;;;;;;;13.37;79.96;95893.00;10352313;28;97224;-69
2022/06/25 05:05:49;;;;;;;3.72;1.00;;;;;;;13.42;80.46;95888.88;10350601;28;98061;-68
2022/06/25 05:10:54;;;;;;;4.95;1.25;;;;;;;13.60;80.49;95879.88;10359318;28;96919;-70
2022/06/25 05:15:57;;;;;;;2.73;0.93;;;;;;;13.79;80.16;95875.97;10367809;28;96971;-68
2022/06/25 05:21:01;;;;;;;4.07;1.08;;;;;;;13.89;79.55;95881.00;10360632;28;96993;-68
2022/06/25 05:26:06;;;;;;;6.20;1.20;;;;;;;14.01;79.74;95874.31;10359691;28;97215;-69
2022/06/25 05:31:09;;;;;;;4.38;1.30;;;;;;;14.10;79.60;95865.34;10346770;28;96855;-68
2022/06/25 05:36:12;;;;;;;3.90;1.15;;;;;;;14.22;79.25;95880.69;10365967;28;96869;-68
2022/06/25 05:41:16;;;;;;;2.00;1.00;;;;;;;14.45;78.53;95885.91;10356654;28;97157;-69
2022/06/25 05:46:19;;;;;;;1.27;0.93;;;;;;;14.61;78.71;95893.63;10366813;28;96911;-68
2022/06/25 05:51:22;;;;;;;1.70;1.30;;;;;;;14.72;79.39;95890.53;10371622;28;98812;-67
2022/06/25 05:56:26;;;;;;;5.18;2.55;;;;;;;14.89;78.52;95893.00;10358011;28;97060;-69
2022/06/25 06:01:29;;;;;;;1.70;1.10;;;;;;;15.04;78.28;95899.00;10370920;28;97241;-68
2022/06/25 06:06:32;;;;;;;2.80;1.15;;;;;;;15.19;78.71;95885.03;10363275;28;98366;-70
2022/06/25 06:11:37;;;;;;;3.95;1.08;;;;;;;15.29;78.06;95872.41;10366095;28;98286;-69
2022/06/25 06:16:40;;;;;;;5.00;3.05;;;;;;;15.33;78.67;95873.66;10356023;28;97122;-71
2022/06/25 06:21:43;;;;;;;4.27;1.53;;;;;;;15.38;78.25;95881.00;10372137;28;97122;-68
2022/06/25 06:26:48;;;;;;;3.22;1.20;;;;;;;15.43;78.24;95884.69;10368086;28;96885;-70
2022/06/25 06:31:50;;;;;;;4.28;1.50;;;;;;;15.54;78.02;95880.75;10370544;28;101050;-69
2022/06/25 06:36:53;;;;;;;4.00;1.20;;;;;;;15.65;77.72;95885.56;10361326;28;97135;-69
2022/06/25 06:41:57;;;;;;;6.18;2.28;;;;;;;15.81;77.63;95876.59;10366209;28;97868;-67
2022/06/25 06:47:01;;;;;;;2.30;1.20;;;;;;;15.91;76.96;95867.53;10368997;28;97204;-69
2022/06/25 06:52:04;;;;;;;3.58;1.17;;;;;;;16.06;77.08;95868.25;10352333;28;98184;-68
2022/06/25 06:57:08;;;;;;;3.25;1.00;;;;;;;16.19;76.13;95872.81;10365065;28;98589;-68
2022/06/25 07:02:12;;;;;;;;;;;;;;;16.33;76.10;95882.47;10354347;28;96877;-71
2022/06/25 07:07:15;;;;;;;2.42;1.10;;;;;;;16.49;75.61;95886.63;10366445;28;98252;-69
2022/06/25 07:12:19;;;;;;;2.25;1.27;;;;;;;16.66;75.09;95888.94;10363464;28;98612;-68
2022/06/25 07:17:22;;;;;;;2.25;0.90;;;;;;;16.77;74.71;95889.22;10353107;28;96922;-69
2022/06/25 07:22:25;;;;;;;3.80;1.00;;;;;;;16.90;73.94;95883.22;10359770;28;97958;-68
2022/06/25 07:27:29;;;;;;;2.10;1.05;;;;;;;17.00;74.14;95881.03;10363214;28;98237;-69
2022/06/25 07:32:33;;;;;;;1.63;1.00;;;;;;;17.14;73.62;95874.00;10360815;28;97797;-69
2022/06/25 07:37:36;;;;;;;5.15;1.67;;;;;;;17.27;73.04;95873.22;10358034;28;100919;-69
2022/06/25 07:42:41;;;;;;;2.03;0.90;;;;;;;17.37;72.84;95865.72;10350322;28;99138;-68
2022/06/25 07:47:46;;;;;;;;;;;;;;;17.50;72.66;95848.28;10365042;28;97488;-68
2022/06/25 07:52:48;;;;;;;2.07;1.07;;;;;;;17.52;72.24;95854.16;10365703;28;96974;-70
2022/06/25 07:57:56;;;;;;;2.13;1.00;;;;;;;17.63;71.99;95844.84;10358540;28;104048;-70
2022/06/25 08:03:01;;;;;;;1.48;0.70;;;;;;;17.77;71.77;95851.78;10369427;28;98802;-69
2022/06/25 08:08:04;;;;;;;2.05;1.20;;;;;;;17.99;70.96;95851.59;10352788;28;97006;-70
2022/06/25 08:13:09;;;;;;;3.25;0.88;;;;;;;18.07;69.79;95839.00;10356149;28;96917;-68
2022/06/25 08:18:12;;;;;;;1.63;0.70;;;;;;;18.12;68.74;95833.91;10354027;28;96838;-70
2022/06/25 08:23:16;;;;;;;2.90;0.90;;;;;;;18.20;69.79;95834.69;10359981;28;103633;-70
2022/06/25 08:28:20;;;;;;;1.30;0.98;;;;;;;18.32;69.18;95830.41;10363680;28;97011;-70
2022/06/25 08:33:23;;;;;;;1.23;1.00;;;;;;;18.49;69.06;95830.78;10364072;28;97185;-69
2022/06/25 08:38:26;;;;;;;1.30;0.90;;;;;;;18.50;68.39;95827.94;10363086;28;96918;-69
2022/06/25 08:43:31;;;;;;;2.40;1.10;;;;;;;18.56;68.24;95818.34;10343420;28;96922;-68
2022/06/25 08:48:37;;;;;;;2.35;0.93;;;;;;;18.72;67.54;95819.72;10353650;28;98645;-68
2022/06/25 08:53:40;;;;;;;2.15;0.70;;;;;;;19.00;66.48;95815.97;10358883;28;96897;-70
2022/06/25 08:58:45;;;;;;;2.03;0.93;;;;;;;19.25;66.04;95816.88;10385400;28;96780;-68
2022/06/25 09:03:48;;;;;;;1.52;0.80;;;;;;;19.31;64.74;95814.41;10367885;28;97023;-69
2022/06/25 09:09:10;;;;;;;1.30;0.80;;;;;;;19.41;63.42;95812.09;10373883;28;97985;-68
2022/06/25 09:14:22;;;;;;;3.90;0.88;;;;;;;19.50;62.09;95813.44;10365383;28;97887;-69
2022/06/25 09:19:30;;;;;;;1.60;0.77;;;;;;;19.58;62.23;95801.81;10362780;28;98412;-70
2022/06/25 09:24:41;;;;;;;0.50;0.50;;;;;;;19.70;62.60;95793.97;10350745;28;97117;-69
2022/06/25 09:29:48;;;;;;;1.10;0.75;;;;;;;19.88;62.37;95806.50;10367463;28;97147;-69
2022/06/25 09:34:51;;;;;;;1.92;0.82;;;;;;;19.88;60.94;95788.72;10355995;28;97811;-68
2022/06/25 09:39:55;;;;;;;1.75;0.60;;;;;;;19.99;60.84;95788.03;10346711;28;96909;-68
2022/06/25 09:45:05;;;;;;;3.78;0.80;;;;;;;20.06;60.81;95789.81;10364663;28;96966;-72
2022/06/25 09:50:13;;;;;;;0.70;0.63;;;;;;;20.15;61.06;95789.31;10344003;28;97409;-68
2022/06/25 09:55:17;;;;;;;1.58;0.90;;;;;;;20.24;60.54;95792.50;10354529;28;99265;-69
2022/06/25 10:00:22;;;;;;;3.05;0.75;;;;;;;20.35;60.25;95794.41;10347973;28;97520;-72
2022/06/25 10:05:31;;;;;;;1.35;0.82;;;;;;;20.41;58.95;95781.28;10361072;28;97087;-69
2022/06/25 10:10:39;;;;;;;1.10;0.85;;;;;;;20.32;58.86;95773.66;10353680;28;97094;-69
2022/06/25 10:15:45;;;;;;;1.23;0.80;;;;;;;20.34;59.59;95773.44;10363679;28;97005;-69
2022/06/25 10:20:48;;;;;;;1.48;0.60;;;;;;;20.45;58.55;95766.56;10357816;28;97067;-69
2022/06/25 10:25:52;;;;;;;2.05;0.70;;;;;;;20.53;58.22;95766.28;10351040;28;97550;-69
2022/06/25 10:30:58;;;;;;;1.77;1.02;;;;;;;20.63;59.02;95766.53;10376625;28;97061;-69
2022/06/25 10:36:04;;;;;;;1.95;0.85;;;;;;;20.73;59.52;95763.38;10367093;28;97837;-69
2022/06/25 10:46:32;;;;;;;1.20;0.88;;;;;;;21.10;58.27;95742.06;10351217;28;97190;-70
2022/06/25 10:51:42;;;;;;;0.70;0.70;;;;;;;21.35;56.79;95744.59;10375599;28;96854;-71
2022/06/25 10:56:46;;;;;;;1.38;0.90;;;;;;;21.55;56.70;95744.25;10374339;28;96807;-72
2022/06/25 11:01:57;;;;;;;2.83;0.80;;;;;;;21.71;55.13;95729.53;10361608;28;96765;-69
2022/06/25 11:07:09;;;;;;;2.50;0.80;;;;;;;22.03;54.51;95739.81;10358761;28;96952;-69
2022/06/25 11:12:13;;;;;;;2.28;0.82;;;;;;;22.25;54.18;95732.84;10368724;28;98148;-69
2022/06/25 11:17:17;;;;;;;1.75;0.70;;;;;;;22.41;54.08;95730.53;10367297;28;96857;-70
2022/06/25 11:22:20;;;;;;;1.40;0.60;;;;;;;22.46;53.50;95725.34;10372037;28;97664;-69
2022/06/25 11:32:49;;;;;;;1.55;0.68;;;;;;;22.66;52.65;95716.13;10371129;28;97202;-69
2022/06/25 11:37:52;;;;;;;2.15;0.63;;;;;;;22.79;52.77;95713.19;10368323;28;97456;-69
2022/06/25 11:43:06;;;;;;;1.13;0.65;;;;;;;22.84;50.40;95718.63;10369196;28;96778;-69
2022/06/25 11:48:10;;;;;;;0.57;0.57;;;;;;;22.78;51.77;95720.34;10364103;28;97212;-69
2022/06/25 11:53:13;;;;;;;1.35;0.70;;;;;;;23.04;51.42;95706.72;10374114;28;97952;-71
2022/06/25 11:58:17;;;;;;;0.70;0.70;;;;;;;23.43;50.06;95706.84;10357124;28;96915;-69
2022/06/25 12:03:24;;;;;;;1.42;0.70;;;;;;;23.63;50.08;95707.19;10367994;28;96947;-69
2022/06/25 12:08:29;;;;;;;1.75;0.80;;;;;;;23.64;50.16;95695.47;10363675;28;97005;-70
2022/06/25 12:13:33;;;;;;;2.00;0.60;;;;;;;23.61;50.15;95687.97;10354048;28;97900;-69
2022/06/25 12:18:39;;;;;;;1.50;0.70;;;;;;;23.87;49.94;95681.13;10372495;28;105456;-70
2022/06/25 12:23:53;;;;;;;2.65;0.73;;;;;;;23.89;50.07;95678.22;10374420;28;96805;-69
2022/06/25 12:29:07;;;;;;;1.95;0.80;;;;;;;24.13;48.92;95671.63;10358050;28;98127;-70
2022/06/25 12:34:12;;;;;;;;;;;;;;;24.38;49.26;95672.22;10367911;28;98402;-69
2022/06/25 12:39:29;;;;;;;1.25;0.60;;;;;;;24.59;47.04;95657.22;10373073;28;96923;-70
2022/06/25 12:44:36;;;;;;;2.55;1.00;;;;;;;24.52;45.99;95656.63;10367370;28;97427;-69
2022/06/25 12:49:48;;;;;;;2.28;0.45;;;;;;;24.36;45.54;95652.97;10362798;28;97166;-72
2022/06/25 12:54:55;;;;;;;1.25;0.60;;;;;;;24.58;47.42;95640.41;10369397;28;97638;-69
2022/06/25 12:59:59;;;;;;;0.95;0.60;;;;;;;24.69;46.41;95635.97;10367958;28;97526;-69
2022/06/25 13:05:11;;;;;;;0.63;0.57;;;;;;;24.94;45.77;95631.94;10350701;28;96802;-69
2022/06/25 13:10:15;;;;;;;1.17;0.60;;;;;;;25.13;44.55;95625.19;10373201;28;97337;-69
2022/06/25 13:15:18;;;;;;;1.00;0.60;;;;;;;25.62;44.05;95633.06;10364256;28;97947;-72
2022/06/25 13:20:22;;;;;;;1.00;0.60;;;;;;;26.07;42.75;95632.75;10367983;28;97198;-70
2022/06/25 13:25:26;;;;;;;0.57;0.50;;;;;;;26.47;42.46;95623.31;10361342;28;97142;-69
2022/06/25 13:30:29;;;;;;;1.13;0.38;;;;;;;26.63;41.96;95629.50;10362607;28;97533;-69
2022/06/25 13:35:54;;;;;;;0.80;0.40;;;;;;;26.54;41.07;95621.19;10358355;28;96877;-69
2022/06/25 13:40:57;;;;;;;0.60;0.60;;;;;;;26.90;40.39;95618.56;10365535;28;97072;-69
2022/06/25 13:46:00;;;;;;;0.60;0.60;;;;;;;27.50;38.94;95611.59;10371371;28;96946;-71
2022/06/25 13:51:04;;;;;;;1.43;0.67;;;;;;;27.83;40.77;95612.09;10371936;28;96906;-69
2022/06/25 13:56:07;;;;;;;1.27;0.50;;;;;;;27.94;39.33;95604.03;10359118;28;97010;-70
2022/06/25 14:01:10;;;;;;;0.50;0.40;;;;;;;27.98;39.32;95605.09;10372386;28;96843;-69
2022/06/25 14:06:14;;;;;;;1.38;0.50;;;;;;;28.40;37.95;95601.19;10361418;28;97254;-69
2022/06/25 14:11:18;;;;;;;2.35;0.70;;;;;;;29.05;37.91;95584.91;10374849;28;98637;-72
2022/06/25 14:16:21;;;;;;;1.25;0.73;;;;;;;31.36;34.13;95584.84;10358787;28;97458;-69
2022/06/25 14:21:27;;;;;;;2.55;0.50;;;;;;;33.90;31.90;95589.84;10374201;28;96901;-70
2022/06/25 14:26:33;;;;;;;0.95;0.40;;;;;;;35.02;31.06;95587.69;10376586;28;96863;-69
2022/06/25 14:31:38;;;;;;;1.08;0.35;;;;;;;35.89;28.34;95590.25;10367651;28;98207;-68
2022/06/25 14:42:22;;;;;;;1.67;0.50;;;;;;;36.21;28.15;95577.19;10375469;27;96746;-69
2022/06/25 14:47:25;;;;;;;0.53;0.40;;;;;;;35.25;29.48;95566.59;10365047;28;97191;-69
2022/06/25 14:52:29;;;;;;;1.27;0.70;;;;;;;36.24;27.52;95554.75;10376528;28;97124;-68
2022/06/25 14:57:32;;;;;;;1.05;0.50;;;;;;;38.10;25.59;95555.09;10378287;28;96975;-68
2022/06/25 15:02:36;;;;;;;0.65;0.40;;;;;;;39.25;24.62;95546.75;10374221;28;96908;-68
2022/06/25 15:07:40;;;;;;;0.50;0.40;;;;;;;40.28;22.91;95539.53;10376113;28;96933;-68
2022/06/25 15:12:44;;;;;;;1.92;0.40;;;;;;;40.59;23.29;95531.63;10373986;28;97039;-68
2022/06/25 15:17:47;;;;;;;1.13;0.70;;;;;;;40.09;23.52;95528.53;10388382;28;97988;-69
2022/06/25 15:22:52;;;;;;;0.80;0.45;;;;;;;37.24;27.70;95510.59;10364157;28;96776;-71
2022/06/25 15:27:55;;;;;;;2.05;0.50;;;;;;;34.26;30.41;95515.69;10368855;28;97608;-69
2022/06/25 15:32:58;;;;;;;0.40;0.40;;;;;;;33.55;29.70;95503.00;10369177;28;98465;-68
2022/06/25 15:38:03;;;;;;;2.05;0.47;;;;;;;35.67;29.46;95494.25;10376393;28;97006;-67
2022/06/25 15:43:06;;;;;;;4.38;0.50;;;;;;;37.31;26.75;95484.38;10362641;28;96818;-70
2022/06/25 15:48:09;;;;;;;1.92;0.50;;;;;;;35.63;26.61;95484.38;10361833;28;97124;-70
2022/06/25 15:53:14;;;;;;;0.80;0.30;;;;;;;36.41;28.29;95481.19;10358031;28;98983;-68
2022/06/25 15:58:16;;;;;;;0.35;0.35;;;;;;;38.04;25.52;95471.13;10357855;28;97809;-68
2022/06/25 16:03:19;;;;;;;2.05;0.50;;;;;;;38.74;25.25;95462.66;10352237;28;97410;-69
2022/06/25 16:08:23;;;;;;;0.73;0.40;;;;;;;39.55;24.09;95464.34;10362651;28;98246;-68
2022/06/25 16:13:27;;;;;;;0.63;0.30;;;;;;;40.08;23.18;95470.31;10359268;28;100804;-69
2022/06/25 16:18:30;;;;;;;1.55;0.47;;;;;;;40.72;22.86;95470.06;10358602;28;97106;-68
2022/06/25 16:23:35;;;;;;;1.17;0.45;;;;;;;40.98;22.18;95454.94;10359918;28;96883;-68
2022/06/25 16:28:38;;;;;;;1.50;0.60;;;;;;;41.16;21.83;95456.03;10354451;28;98461;-71
2022/06/25 16:33:43;;;;;;;0.70;0.25;;;;;;;41.11;23.48;95445.38;10364805;28;97029;-68
2022/06/25 16:38:50;;;;;;;0.57;0.40;;;;;;;41.13;22.60;95445.81;10364657;28;97198;-68
2022/06/25 16:44:04;;;;;;;0.60;0.35;;;;;;;41.00;22.85;95452.63;10355942;28;97096;-69
2022/06/25 16:49:10;;;;;;;1.33;0.55;;;;;;;40.29;22.55;95459.03;10360919;28;97294;-69
2022/06/25 16:54:17;;;;;;;0.80;0.50;;;;;;;40.76;22.88;95465.47;10371909;28;97600;-69
2022/06/25 16:59:20;;;;;;;1.13;0.40;;;;;;;40.01;24.35;95464.66;10359571;28;97766;-68
2022/06/25 17:04:24;;;;;;;2.90;0.70;;;;;;;37.44;26.17;95471.59;10348901;28;96839;-68
2022/06/25 17:09:28;;;;;;;0.88;0.47;;;;;;;37.42;25.48;95471.09;10362989;28;100964;-68
2022/06/25 17:14:31;;;;;;;2.33;0.60;;;;;;;37.42;25.33;95479.28;10368387;28;97847;-68
2022/06/25 17:19:34;;;;;;;1.10;0.55;;;;;;;35.16;27.72;95482.44;10355888;28;97329;-69
2022/06/25 17:24:38;;;;;;;0.60;0.52;;;;;;;34.28;28.62;95476.31;10362530;28;104648;-68
2022/06/25 17:29:42;;;;;;;0.52;0.50;;;;;;;34.02;29.54;95471.63;10357746;28;96930;-68
2022/06/25 17:34:45;;;;;;;1.98;0.47;;;;;;;32.85;31.31;95484.50;10349734;28;98704;-68
2022/06/25 17:39:49;;;;;;;2.03;1.02;;;;;;;31.67;32.61;95491.69;10373415;28;97009;-68
2022/06/25 17:44:52;;;;;;;1.38;0.70;;;;;;;31.00;33.09;95501.00;10368734;28;97105;-68
2022/06/25 17:49:55;;;;;;;1.30;0.70;;;;;;;30.41;34.12;95490.56;10362583;28;96983;-68
2022/06/25 17:55:00;;;;;;;3.35;0.75;;;;;;;29.81;35.09;95492.97;10365452;28;102732;-67
2022/06/25 18:00:04;;;;;;;2.22;0.88;;;;;;;29.21;36.66;95502.22;10366125;28;97282;-67
2022/06/25 18:05:07;;;;;;;1.63;1.13;;;;;;;28.74;37.40;95503.69;10391711;28;96733;-67
2022/06/25 18:10:12;;;;;;;2.42;0.90;;;;;;;28.25;38.48;95518.75;10375767;28;97221;-67
2022/06/25 18:15:15;;;;;;;1.75;1.13;;;;;;;27.82;39.27;95521.13;10361184;28;96968;-68
2022/06/25 18:20:18;;;;;;;1.80;0.82;;;;;;;27.34;40.26;95521.53;10377439;28;98047;-67
2022/06/25 18:25:23;;;;;;;1.00;0.90;;;;;;;26.98;41.25;95523.47;10357165;28;97051;-68
2022/06/25 18:30:26;;;;;;;2.17;1.02;;;;;;;26.78;41.71;95518.88;10361395;28;96795;-67
2022/06/25 18:35:28;;;;;;;3.37;0.97;;;;;;;26.49;42.05;95517.53;10375995;28;99110;-67
2022/06/25 18:40:34;;;;;;;2.95;1.65;;;;;;;26.39;42.34;95522.06;10362939;28;96988;-67
2022/06/25 18:45:37;;;;;;;2.05;1.30;;;;;;;26.25;42.82;95527.91;10361619;28;97124;-67
2022/06/25 18:50:40;;;;;;;6.23;1.27;;;;;;;25.32;44.39;95606.91;10375185;28;97008;-68
2022/06/25 18:55:45;;;;;;;3.95;1.15;;;;;;;23.27;47.73;95568.06;10376704;28;97252;-67
2022/06/25 19:00:50;;;;;;;1.35;0.90;;;;;;;22.21;49.28;95561.47;10353761;28;96781;-67
2022/06/25 19:05:53;;;;;;;3.03;0.90;;;;;;;21.62;50.16;95574.09;10367345;28;98032;-67
2022/06/25 19:10:58;;;;;;;1.20;0.70;;;;;;;21.55;49.45;95591.97;10375009;28;96902;-67
2022/06/25 19:16:01;;;;;;;1.15;0.88;;;;;;;21.71;48.87;95563.91;10360374;28;100817;-68
2022/06/25 19:21:04;;;;;;;1.83;0.80;;;;;;;21.68;48.17;95581.13;10362329;28;97012;-66
2022/06/25 19:26:08;;;;;;;2.25;0.80;;;;;;;21.88;47.39;95594.84;10373961;28;97994;-67
2022/06/25 19:31:13;;;;;;;1.08;0.73;;;;;;;22.13;46.15;95607.03;10359789;28;96852;-69
2022/06/25 19:36:19;;;;;;;;;;;;;;;22.08;46.07;95608.81;10370304;28;97071;-69
2022/06/25 19:41:23;;;;;;;0.77;0.32;;;;;;;21.88;47.36;95632.09;10373500;28;97061;-69
2022/06/25 19:46:26;;;;;;;2.30;0.70;;;;;;;21.82;47.65;95640.19;10359547;28;97028;-69
2022/06/25 19:51:31;;;;;;;2.00;0.95;;;;;;;21.80;47.93;95645.72;10370664;28;98150;-69
2022/06/25 19:56:36;;;;;;;2.50;0.98;;;;;;;21.77;48.02;95656.81;10363571;28;96877;-68
2022/06/25 20:01:39;;;;;;;1.30;0.93;;;;;;;21.83;47.86;95679.84;10357569;28;96944;-69
2022/06/25 20:06:42;;;;;;;2.72;0.98;;;;;;;21.86;47.69;95681.19;10372893;28;96999;-69
2022/06/25 20:11:46;;;;;;;1.20;0.80;;;;;;;21.88;47.64;95679.94;10372086;28;96920;-69
2022/06/25 20:16:49;;;;;;;;;;;;;;;21.93;46.98;95705.03;10356546;28;98959;-69
2022/06/25 20:21:52;;;;;;;1.60;1.00;;;;;;;21.85;48.60;95722.16;10363924;28;96828;-69
2022/06/25 20:26:56;;;;;;;3.25;1.13;;;;;;;21.65;49.96;95714.50;10367940;28;96896;-70
2022/06/25 20:31:59;;;;;;;;;;;;;;;21.53;49.45;95718.97;10354465;28;96954;-69
2022/06/25 20:37:02;;;;;;;2.80;1.23;;;;;;;21.41;50.33;95727.72;10363201;28;97026;-69
2022/06/25 20:42:13;;;;;;;2.42;1.30;;;;;;;21.30;51.50;95733.84;10360552;28;97200;-69
2022/06/25 20:47:16;;;;;;;4.40;1.15;;;;;;;21.19;51.99;95747.88;10366736;28;100808;-70
2022/06/25 20:52:19;;;;;;;3.53;1.10;;;;;;;21.10;51.97;95737.59;10352561;28;97038;-69
2022/06/25 20:57:24;;;;;;;1.65;1.13;;;;;;;21.00;52.67;95747.13;10369318;28;96913;-69
2022/06/25 21:02:27;;;;;;;2.33;1.10;;;;;;;20.92;53.16;95745.59;10339268;28;97051;-68
2022/06/25 21:12:57;;;;;;;4.67;1.33;;;;;;;20.61;53.97;95763.31;10363259;28;96868;-69
2022/06/25 21:18:00;;;;;;;1.77;1.00;;;;;;;20.44;55.00;95778.19;10353049;28;97047;-70
2022/06/25 21:23:03;;;;;;;2.58;1.27;;;;;;;20.20;55.87;95780.72;10361813;28;98096;-69
2022/06/25 21:28:07;;;;;;;2.63;1.30;;;;;;;20.09;56.32;95787.53;10360135;28;96932;-69
2022/06/25 21:33:10;;;;;;;1.80;1.20;;;;;;;19.97;57.11;95795.41;10348693;28;96987;-69
2022/06/25 21:38:13;;;;;;;2.03;1.30;;;;;;;19.84;58.78;95805.31;10369844;28;97169;-69
2022/06/25 21:43:17;;;;;;;2.33;1.30;;;;;;;19.60;59.15;95811.13;10358578;28;100766;-69
2022/06/25 21:48:20;;;;;;;3.10;1.70;;;;;;;19.46;60.49;95814.13;10366287;28;96961;-68
2022/06/25 21:53:23;;;;;;;2.10;1.38;;;;;;;19.34;60.98;95811.31;10369414;28;96953;-70
2022/06/25 21:58:28;;;;;;;3.30;1.25;;;;;;;19.22;61.36;95812.00;10342172;28;97088;-69
2022/06/25 22:03:30;;;;;;;1.85;1.13;;;;;;;19.20;60.36;95814.03;10366896;28;97219;-68
2022/06/25 22:08:33;;;;;;;1.70;1.38;;;;;;;19.16;60.92;95812.06;10366080;28;97139;-69
2022/06/25 22:13:38;;;;;;;3.33;1.00;;;;;;;19.17;61.78;95809.16;10358254;28;96847;-69
2022/06/25 22:18:40;;;;;;;;;;;;;;;19.13;60.11;95813.28;10368476;28;97198;-69
2022/06/25 22:23:43;;;;;;;5.22;2.10;;;;;;;19.11;60.93;95830.41;10362113;28;96878;-68
2022/06/25 22:28:47;;;;;;;3.72;1.50;;;;;;;18.96;61.06;95822.72;10350956;28;96783;-69
2022/06/25 22:33:50;;;;;;;11.25;6.72;;;;;;;18.92;61.28;95830.28;10352291;28;96767;-68
2022/06/25 22:38:53;;;;;;;2.15;1.45;;;;;;;18.79;62.32;95831.09;10367582;28;97077;-69
2022/06/25 22:43:57;;;;;;;2.53;1.10;;;;;;;18.59;63.04;95833.00;10361451;28;97205;-70
2022/06/25 22:49:00;;;;;;;3.40;1.10;;;;;;;18.36;64.29;95844.88;10360327;28;96956;-68
2022/06/25 22:54:02;;;;;;;3.10;1.45;;;;;;;18.26;64.57;95841.81;10374603;28;96991;-69
2022/06/25 22:59:07;;;;;;;2.03;1.20;;;;;;;18.30;64.28;95845.66;10362729;28;97077;-68
2022/06/25 23:04:09;;;;;;;2.83;1.40;;;;;;;18.36;64.29;95846.69;10375939;28;97174;-68
2022/06/25 23:09:13;;;;;;;4.57;1.38;;;;;;;18.30;64.56;95857.06;10374386;28;96834;-69
2022/06/25 23:14:37;;;;;;;1.70;1.08;;;;;;;18.06;65.61;95866.44;10357631;28;96841;-68
2022/06/25 23:19:41;;;;;;;2.92;1.15;;;;;;;18.07;65.19;95860.13;10363551;28;96931;-69
2022/06/25 23:24:44;;;;;;;3.08;1.17;;;;;;;18.13;65.46;95848.75;10373421;28;97883;-69
2022/06/25 23:29:48;;;;;;;1.50;1.20;;;;;;;17.99;65.31;95857.69;10360879;28;96763;-68
2022/06/25 23:34:51;;;;;;;3.63;1.60;;;;;;;17.95;66.01;95853.84;10373905;28;96859;-69
2022/06/25 23:39:54;;;;;;;3.08;1.95;;;;;;;18.01;66.58;95858.31;10374288;28;96938;-68
2022/06/25 23:44:58;;;;;;;3.00;1.58;;;;;;;17.80;67.10;95848.72;10358127;28;96901;-69
2022/06/25 23:50:01;;;;;;;1.70;1.25;;;;;;;17.66;67.58;95853.16;10355158;28;97657;-68
2022/06/25 23:55:05;;;;;;;4.05;1.33;;;;;;;17.68;67.87;95856.44;10372054;28;96999;-69
